ETD456 OMAA-YSSY
Flight info
| Callsign | ETD456 |
|---|---|
| Flight time | N/A |
| Altitude | 33000 |
| Route | KANIP N318 TOLDA P570 EMURU M300 VASTU P895 CIA/N0501F350 P895 BIKOK M641 DOGAR DCT 05S090E 10S094E/N0494F370 16S100E DCT IKASA DCT 27S111E DCT POKIP/N0482F390 DCT 31S118E DCT SORTU DCT 33S123E 3330S12500E DCT MOSLA Y135 TEDUS J15 AD H247 CULIN Y59 RIVET |
| Aircraft | A35K/H-SDE2E3GHIJ3J4J5LM1ORWXY/LB1D1 |
Departure
| Time | 2026-04-29 20:26 |
|---|---|
| Airport | Zayed International Airport (OMAA) |
Arrival
| Time | N/A |
|---|---|
| Airport | Sydney Kingsford Smith International Airport (YSSY) |
| Time | Latitude | Longitude | Altitude | Speed | Heading |
|---|---|---|---|---|---|
| 2026-04-29 19:34 | 24.45027 | 54.64514 | 98 ft | 0 kts | 8° |
| 2026-04-29 19:45 | 24.45033 | 54.64515 | 102 ft | 0 kts | 8° |
| 2026-04-29 19:46 | 24.45022 | 54.64513 | 99 ft | 4 kts | 8° |
| 2026-04-29 19:46 | 24.45018 | 54.64513 | 98 ft | 0 kts | 8° |
| 2026-04-29 19:46 | 24.45022 | 54.64513 | 97 ft | 0 kts | 8° |
| 2026-04-29 20:00 | 24.45010 | 54.64511 | 98 ft | 4 kts | 8° |
| 2026-04-29 20:00 | 24.44983 | 54.64507 | 96 ft | 4 kts | 7° |
| 2026-04-29 20:01 | 24.44956 | 54.64504 | 97 ft | 4 kts | 2° |
| 2026-04-29 20:01 | 24.44929 | 54.64503 | 96 ft | 4 kts | 357° |
| 2026-04-29 20:01 | 24.44902 | 54.64506 | 97 ft | 4 kts | 351° |
| 2026-04-29 20:01 | 24.44876 | 54.64511 | 97 ft | 4 kts | 345° |
| 2026-04-29 20:02 | 24.44850 | 54.64520 | 96 ft | 4 kts | 338° |
| 2026-04-29 20:02 | 24.44826 | 54.64532 | 97 ft | 4 kts | 329° |
| 2026-04-29 20:02 | 24.44804 | 54.64548 | 95 ft | 4 kts | 321° |
| 2026-04-29 20:02 | 24.44790 | 54.64561 | 97 ft | 4 kts | 315° |
| 2026-04-29 20:03 | 24.44767 | 54.64590 | 99 ft | 4 kts | 305° |
| 2026-04-29 20:03 | 24.44752 | 54.64615 | 96 ft | 4 kts | 302° |
| 2026-04-29 20:03 | 24.44737 | 54.64640 | 96 ft | 4 kts | 307° |
| 2026-04-29 20:03 | 24.44720 | 54.64661 | 96 ft | 4 kts | 315° |
| 2026-04-29 20:04 | 24.44701 | 54.64681 | 97 ft | 4 kts | 313° |
| 2026-04-29 20:04 | 24.44683 | 54.64703 | 111 ft | 4 kts | 313° |
| 2026-04-29 20:04 | 24.44673 | 54.64715 | 121 ft | 0 kts | 315° |
| 2026-04-29 20:10 | 24.44673 | 54.64714 | 98 ft | 0 kts | 315° |
| 2026-04-29 20:10 | 24.44689 | 54.64697 | 100 ft | 8 kts | 313° |
| 2026-04-29 20:10 | 24.44733 | 54.64650 | 101 ft | 9 kts | 321° |
| 2026-04-29 20:11 | 24.44785 | 54.64612 | 101 ft | 9 kts | 332° |
| 2026-04-29 20:11 | 24.44826 | 54.64622 | 100 ft | 5 kts | 50° |
| 2026-04-29 20:11 | 24.44829 | 54.64652 | 98 ft | 5 kts | 104° |
| 2026-04-29 20:11 | 24.44800 | 54.64702 | 100 ft | 11 kts | 127° |
| 2026-04-29 20:12 | 24.44745 | 54.64782 | 100 ft | 14 kts | 127° |
| 2026-04-29 20:12 | 24.44687 | 54.64862 | 101 ft | 13 kts | 126° |
| 2026-04-29 20:12 | 24.44633 | 54.64940 | 100 ft | 13 kts | 128° |
| 2026-04-29 20:12 | 24.44579 | 54.65015 | 100 ft | 12 kts | 128° |
| 2026-04-29 20:13 | 24.44525 | 54.65090 | 100 ft | 13 kts | 128° |
| 2026-04-29 20:13 | 24.44488 | 54.65139 | 101 ft | 12 kts | 134° |
| 2026-04-29 20:13 | 24.44404 | 54.65120 | 100 ft | 9 kts | 217° |
| 2026-04-29 20:13 | 24.44352 | 54.65077 | 101 ft | 10 kts | 217° |
| 2026-04-29 20:14 | 24.44298 | 54.65031 | 100 ft | 10 kts | 218° |
| 2026-04-29 20:14 | 24.44242 | 54.64983 | 100 ft | 10 kts | 218° |
| 2026-04-29 20:14 | 24.44183 | 54.64934 | 100 ft | 11 kts | 217° |
| 2026-04-29 20:14 | 24.44125 | 54.64885 | 100 ft | 11 kts | 218° |
| 2026-04-29 20:15 | 24.44049 | 54.64821 | 100 ft | 17 kts | 218° |
| 2026-04-29 20:15 | 24.43936 | 54.64741 | 100 ft | 19 kts | 186° |
| 2026-04-29 20:15 | 24.43851 | 54.64815 | 101 ft | 14 kts | 126° |
| 2026-04-29 20:15 | 24.43791 | 54.64900 | 99 ft | 14 kts | 128° |
| 2026-04-29 20:16 | 24.43732 | 54.64984 | 99 ft | 14 kts | 128° |
| 2026-04-29 20:16 | 24.43668 | 54.65074 | 99 ft | 16 kts | 126° |
| 2026-04-29 20:16 | 24.43602 | 54.65168 | 100 ft | 16 kts | 127° |
| 2026-04-29 20:16 | 24.43536 | 54.65262 | 99 ft | 16 kts | 128° |
| 2026-04-29 20:17 | 24.43469 | 54.65355 | 100 ft | 16 kts | 128° |
| 2026-04-29 20:17 | 24.43402 | 54.65448 | 99 ft | 16 kts | 128° |
| 2026-04-29 20:17 | 24.43335 | 54.65543 | 100 ft | 16 kts | 127° |
| 2026-04-29 20:17 | 24.43257 | 54.65653 | 100 ft | 20 kts | 128° |
| 2026-04-29 20:18 | 24.43174 | 54.65771 | 99 ft | 20 kts | 127° |
| 2026-04-29 20:18 | 24.43091 | 54.65887 | 100 ft | 19 kts | 129° |
| 2026-04-29 20:18 | 24.43012 | 54.65999 | 100 ft | 18 kts | 127° |
| 2026-04-29 20:18 | 24.42936 | 54.66104 | 100 ft | 17 kts | 128° |
| 2026-04-29 20:19 | 24.42845 | 54.66231 | 100 ft | 24 kts | 130° |
| 2026-04-29 20:19 | 24.42746 | 54.66372 | 101 ft | 23 kts | 128° |
| 2026-04-29 20:19 | 24.42651 | 54.66506 | 99 ft | 22 kts | 126° |
| 2026-04-29 20:19 | 24.42559 | 54.66636 | 101 ft | 21 kts | 128° |
| 2026-04-29 20:20 | 24.42470 | 54.66762 | 101 ft | 20 kts | 127° |
| 2026-04-29 20:20 | 24.42399 | 54.66856 | 101 ft | 9 kts | 140° |
| 2026-04-29 20:20 | 24.42369 | 54.66861 | 100 ft | 3 kts | 193° |
| 2026-04-29 20:20 | 24.42350 | 54.66850 | 99 ft | 3 kts | 211° |
| 2026-04-29 20:21 | 24.42325 | 54.66832 | 99 ft | 5 kts | 214° |
| 2026-04-29 20:21 | 24.42295 | 54.66807 | 100 ft | 6 kts | 217° |
| 2026-04-29 20:21 | 24.42250 | 54.66770 | 100 ft | 10 kts | 217° |
| 2026-04-29 20:21 | 24.42194 | 54.66723 | 98 ft | 10 kts | 219° |
| 2026-04-29 20:22 | 24.42187 | 54.66695 | 99 ft | 2 kts | 276° |
| 2026-04-29 20:22 | 24.42190 | 54.66688 | 99 ft | 2 kts | 295° |
| 2026-04-29 20:22 | 24.42199 | 54.66676 | 100 ft | 0 kts | 307° |
| 2026-04-29 20:25 | 24.42206 | 54.66666 | 98 ft | 9 kts | 308° |
| 2026-04-29 20:25 | 24.42400 | 54.66393 | 100 ft | 83 kts | 308° |
| 2026-04-29 20:26 | 24.42906 | 54.65682 | 99 ft | 151 kts | 308° |
| 2026-04-29 20:26 | 24.43674 | 54.64593 | 148 ft | 205 kts | 308° |
| 2026-04-29 20:26 | 24.44522 | 54.63332 | 926 ft | 203 kts | 306° |
| 2026-04-29 20:26 | 24.45351 | 54.62082 | 1830 ft | 203 kts | 311° |
| 2026-04-29 20:27 | 24.46281 | 54.60889 | 2583 ft | 211 kts | 314° |
| 2026-04-29 20:27 | 24.46915 | 54.60050 | 2999 ft | 218 kts | 312° |
| 2026-04-29 20:27 | 24.48192 | 54.58263 | 3416 ft | 227 kts | 310° |
| 2026-04-29 20:27 | 24.49163 | 54.56879 | 3748 ft | 231 kts | 309° |
| 2026-04-29 20:28 | 24.50173 | 54.55442 | 3968 ft | 244 kts | 310° |
| 2026-04-29 20:28 | 24.51227 | 54.53954 | 4354 ft | 249 kts | 309° |
| 2026-04-29 20:28 | 24.52293 | 54.52450 | 4844 ft | 251 kts | 309° |
| 2026-04-29 20:28 | 24.53371 | 54.50928 | 5272 ft | 254 kts | 308° |
| 2026-04-29 20:29 | 24.54463 | 54.49385 | 5727 ft | 257 kts | 308° |
| 2026-04-29 20:29 | 24.55566 | 54.47829 | 6150 ft | 260 kts | 307° |
| 2026-04-29 20:29 | 24.56684 | 54.46246 | 6565 ft | 264 kts | 307° |
| 2026-04-29 20:29 | 24.57811 | 54.44651 | 7019 ft | 265 kts | 306° |
| 2026-04-29 20:30 | 24.58989 | 54.43079 | 7466 ft | 269 kts | 314° |
| 2026-04-29 20:30 | 24.60584 | 54.41994 | 7873 ft | 276 kts | 343° |
| 2026-04-29 20:30 | 24.62404 | 54.41909 | 8098 ft | 291 kts | 12° |
| 2026-04-29 20:30 | 24.64229 | 54.42918 | 8341 ft | 302 kts | 42° |
| 2026-04-29 20:31 | 24.65455 | 54.44781 | 8740 ft | 305 kts | 70° |
| 2026-04-29 20:31 | 24.65793 | 54.47053 | 9197 ft | 303 kts | 96° |
| 2026-04-29 20:31 | 24.65525 | 54.49347 | 9717 ft | 304 kts | 103° |
| 2026-04-29 20:31 | 24.65150 | 54.51645 | 10170 ft | 308 kts | 103° |
| 2026-04-29 20:32 | 24.64761 | 54.54014 | 10403 ft | 322 kts | 103° |
| 2026-04-29 20:32 | 24.64372 | 54.56486 | 10630 ft | 335 kts | 102° |
| 2026-04-29 20:32 | 24.63986 | 54.59025 | 10846 ft | 348 kts | 102° |
| 2026-04-29 20:32 | 24.63719 | 54.60814 | 10986 ft | 356 kts | 102° |
| 2026-04-29 20:33 | 24.63068 | 54.64460 | 11272 ft | 370 kts | 106° |
| 2026-04-29 20:33 | 24.62449 | 54.67208 | 11470 ft | 381 kts | 107° |
| 2026-04-29 20:33 | 24.61789 | 54.70065 | 11708 ft | 389 kts | 107° |
| 2026-04-29 20:33 | 24.61121 | 54.72967 | 12081 ft | 393 kts | 107° |
| 2026-04-29 20:34 | 24.60271 | 54.75863 | 12486 ft | 393 kts | 117° |
| 2026-04-29 20:34 | 24.58789 | 54.78317 | 12890 ft | 390 kts | 134° |
| 2026-04-29 20:34 | 24.56889 | 54.80440 | 13347 ft | 391 kts | 139° |
| 2026-04-29 20:34 | 24.54911 | 54.82503 | 13738 ft | 393 kts | 139° |
| 2026-04-29 20:35 | 24.52915 | 54.84575 | 14085 ft | 397 kts | 139° |
| 2026-04-29 20:35 | 24.50906 | 54.86673 | 14427 ft | 400 kts | 139° |
| 2026-04-29 20:35 | 24.48879 | 54.88798 | 14770 ft | 404 kts | 139° |
| 2026-04-29 20:35 | 24.46872 | 54.90907 | 15110 ft | 407 kts | 139° |
| 2026-04-29 20:36 | 24.44788 | 54.93099 | 15480 ft | 410 kts | 139° |
| 2026-04-29 20:36 | 24.42717 | 54.95278 | 15830 ft | 414 kts | 139° |
| 2026-04-29 20:36 | 24.40634 | 54.97470 | 16183 ft | 417 kts | 139° |
| 2026-04-29 20:36 | 24.38532 | 54.99682 | 16526 ft | 420 kts | 140° |
| 2026-04-29 20:37 | 24.36415 | 55.01908 | 16875 ft | 423 kts | 140° |
| 2026-04-29 20:37 | 24.34284 | 55.04151 | 17213 ft | 427 kts | 139° |
| 2026-04-29 20:37 | 24.32277 | 55.06581 | 17548 ft | 434 kts | 130° |
| 2026-04-29 20:37 | 24.30630 | 55.09385 | 17887 ft | 440 kts | 123° |
| 2026-04-29 20:38 | 24.29120 | 55.12319 | 18206 ft | 444 kts | 122° |
| 2026-04-29 20:38 | 24.28125 | 55.14283 | 18406 ft | 446 kts | 122° |
| 2026-04-29 20:38 | 24.26101 | 55.18269 | 18828 ft | 449 kts | 122° |
| 2026-04-29 20:38 | 24.24573 | 55.21260 | 19150 ft | 451 kts | 123° |
| 2026-04-29 20:39 | 24.23034 | 55.24264 | 19472 ft | 453 kts | 123° |
| 2026-04-29 20:39 | 24.22010 | 55.26258 | 19683 ft | 455 kts | 123° |
| 2026-04-29 20:39 | 24.20451 | 55.29291 | 20006 ft | 457 kts | 123° |
| 2026-04-29 20:39 | 24.18887 | 55.32332 | 20330 ft | 460 kts | 123° |
| 2026-04-29 20:40 | 24.17403 | 55.35449 | 20648 ft | 464 kts | 119° |
| 2026-04-29 20:40 | 24.16056 | 55.38668 | 20984 ft | 467 kts | 117° |
| 2026-04-29 20:40 | 24.14778 | 55.41955 | 21306 ft | 470 kts | 116° |
| 2026-04-29 20:40 | 24.13532 | 55.45270 | 21652 ft | 472 kts | 115° |
| 2026-04-29 20:41 | 24.12285 | 55.48610 | 21964 ft | 475 kts | 115° |
| 2026-04-29 20:41 | 24.11027 | 55.51959 | 22292 ft | 477 kts | 116° |
| 2026-04-29 20:41 | 24.09753 | 55.55318 | 22616 ft | 479 kts | 116° |
| 2026-04-29 20:41 | 24.08461 | 55.58695 | 22925 ft | 482 kts | 116° |
| 2026-04-29 20:42 | 24.07158 | 55.62079 | 23239 ft | 484 kts | 116° |
| 2026-04-29 20:42 | 24.05811 | 55.65467 | 23534 ft | 486 kts | 118° |
| 2026-04-29 20:42 | 24.04334 | 55.68790 | 23795 ft | 487 kts | 121° |
| 2026-04-29 20:42 | 24.02768 | 55.72078 | 24072 ft | 488 kts | 122° |
| 2026-04-29 20:43 | 24.01163 | 55.75360 | 24333 ft | 490 kts | 122° |
| 2026-04-29 20:43 | 23.99544 | 55.78656 | 24605 ft | 493 kts | 122° |
| 2026-04-29 20:43 | 23.97928 | 55.81965 | 24873 ft | 495 kts | 121° |
| 2026-04-29 20:43 | 23.96312 | 55.85302 | 25167 ft | 497 kts | 121° |
| 2026-04-29 20:44 | 23.94701 | 55.88652 | 25449 ft | 500 kts | 121° |
| 2026-04-29 20:44 | 23.93106 | 55.91982 | 25745 ft | 502 kts | 121° |
| 2026-04-29 20:44 | 23.91463 | 55.95419 | 26043 ft | 505 kts | 121° |
| 2026-04-29 20:44 | 23.89855 | 55.98783 | 26333 ft | 507 kts | 121° |
| 2026-04-29 20:45 | 23.88196 | 56.02250 | 26641 ft | 510 kts | 121° |
| 2026-04-29 20:45 | 23.86571 | 56.05644 | 26908 ft | 512 kts | 121° |
| 2026-04-29 20:45 | 23.84915 | 56.09101 | 27189 ft | 515 kts | 121° |
| 2026-04-29 20:45 | 23.83248 | 56.12574 | 27502 ft | 517 kts | 120° |
| 2026-04-29 20:46 | 23.81573 | 56.16063 | 27785 ft | 520 kts | 120° |
| 2026-04-29 20:46 | 23.79887 | 56.19573 | 28038 ft | 523 kts | 120° |
| 2026-04-29 20:46 | 23.78192 | 56.23097 | 28303 ft | 526 kts | 120° |
| 2026-04-29 20:46 | 23.76487 | 56.26641 | 28585 ft | 528 kts | 120° |
| 2026-04-29 20:47 | 23.74773 | 56.30200 | 28855 ft | 531 kts | 120° |
| 2026-04-29 20:47 | 23.73050 | 56.33776 | 29122 ft | 533 kts | 120° |
| 2026-04-29 20:47 | 23.71320 | 56.37363 | 29348 ft | 536 kts | 120° |
| 2026-04-29 20:47 | 23.69581 | 56.40966 | 29587 ft | 538 kts | 120° |
| 2026-04-29 20:48 | 23.67834 | 56.44585 | 29857 ft | 539 kts | 120° |
| 2026-04-29 20:48 | 23.66081 | 56.48212 | 30050 ft | 541 kts | 120° |
| 2026-04-29 20:48 | 23.64322 | 56.51849 | 30279 ft | 542 kts | 120° |
| 2026-04-29 20:48 | 23.62582 | 56.55444 | 30523 ft | 542 kts | 120° |
| 2026-04-29 20:49 | 23.60825 | 56.59072 | 30874 ft | 540 kts | 120° |
| 2026-04-29 20:49 | 23.59081 | 56.62673 | 31276 ft | 536 kts | 120° |
| 2026-04-29 20:49 | 23.57346 | 56.66252 | 31659 ft | 533 kts | 120° |
| 2026-04-29 20:49 | 23.55618 | 56.69814 | 32009 ft | 530 kts | 121° |
| 2026-04-29 20:50 | 23.53896 | 56.73358 | 32352 ft | 528 kts | 121° |
| 2026-04-29 20:50 | 23.52182 | 56.76884 | 32686 ft | 525 kts | 121° |
| 2026-04-29 20:50 | 23.50468 | 56.80405 | 32858 ft | 527 kts | 121° |
| 2026-04-29 20:50 | 23.48743 | 56.83943 | 32874 ft | 531 kts | 121° |
| 2026-04-29 20:51 | 23.45282 | 56.91038 | 32883 ft | 530 kts | 120° |
| 2026-04-29 20:51 | 23.41827 | 56.98120 | 32889 ft | 529 kts | 121° |
| 2026-04-29 20:52 | 23.38369 | 57.05195 | 32887 ft | 529 kts | 121° |
| 2026-04-29 20:52 | 23.35017 | 57.12327 | 32891 ft | 529 kts | 118° |
| 2026-04-29 20:53 | 23.31777 | 57.19533 | 32894 ft | 530 kts | 118° |
| 2026-04-29 20:53 | 23.28564 | 57.26693 | 32922 ft | 530 kts | 118° |
| 2026-04-29 20:54 | 23.23674 | 57.37482 | 32901 ft | 530 kts | 118° |
| 2026-04-29 20:55 | 23.20401 | 57.44665 | 32902 ft | 530 kts | 118° |
| 2026-04-29 20:55 | 23.17126 | 57.51845 | 32903 ft | 530 kts | 118° |
| 2026-04-29 20:56 | 23.13847 | 57.59022 | 32900 ft | 531 kts | 118° |
| 2026-04-29 20:56 | 23.10558 | 57.66211 | 32897 ft | 531 kts | 118° |
| 2026-04-29 20:57 | 23.07272 | 57.73387 | 32892 ft | 531 kts | 118° |
| 2026-04-29 20:57 | 23.03979 | 57.80565 | 32880 ft | 531 kts | 118° |
| 2026-04-29 20:58 | 23.00685 | 57.87734 | 32874 ft | 531 kts | 118° |
| 2026-04-29 20:58 | 22.97386 | 57.94900 | 32872 ft | 531 kts | 118° |
| 2026-04-29 20:59 | 22.94083 | 58.02064 | 32864 ft | 531 kts | 118° |
| 2026-04-29 20:59 | 22.90776 | 58.09227 | 32861 ft | 531 kts | 118° |
| 2026-04-29 21:00 | 22.87465 | 58.16388 | 32857 ft | 531 kts | 118° |
| 2026-04-29 21:00 | 22.84174 | 58.23494 | 32848 ft | 531 kts | 118° |
| 2026-04-29 21:01 | 22.80857 | 58.30648 | 32856 ft | 531 kts | 118° |
| 2026-04-29 21:01 | 22.77536 | 58.37799 | 32854 ft | 531 kts | 118° |
| 2026-04-29 21:02 | 22.74213 | 58.44944 | 32856 ft | 531 kts | 118° |
| 2026-04-29 21:02 | 22.70889 | 58.52081 | 32837 ft | 531 kts | 118° |
| 2026-04-29 21:03 | 22.67107 | 58.58892 | 32851 ft | 526 kts | 131° |
| 2026-04-29 21:03 | 22.61714 | 58.64109 | 32843 ft | 519 kts | 148° |
| 2026-04-29 21:04 | 22.55614 | 58.68278 | 32831 ft | 518 kts | 152° |
| 2026-04-29 21:04 | 22.49417 | 58.72266 | 32841 ft | 518 kts | 152° |
| 2026-04-29 21:05 | 22.43233 | 58.76269 | 32842 ft | 518 kts | 151° |
| 2026-04-29 21:05 | 22.37072 | 58.80302 | 32835 ft | 518 kts | 151° |
| 2026-04-29 21:06 | 22.30913 | 58.84350 | 32832 ft | 518 kts | 151° |
| 2026-04-29 21:06 | 22.24828 | 58.88518 | 32833 ft | 520 kts | 145° |
| 2026-04-29 21:07 | 22.19646 | 58.93983 | 32826 ft | 523 kts | 133° |
| 2026-04-29 21:07 | 22.14950 | 58.99984 | 32824 ft | 524 kts | 131° |
| 2026-04-29 21:08 | 22.10338 | 59.06057 | 32824 ft | 523 kts | 131° |
| 2026-04-29 21:08 | 22.05735 | 59.12073 | 32819 ft | 523 kts | 131° |
| 2026-04-29 21:09 | 22.01083 | 59.18100 | 32810 ft | 523 kts | 131° |
| 2026-04-29 21:09 | 21.96419 | 59.24120 | 32807 ft | 523 kts | 131° |
| 2026-04-29 21:10 | 21.91754 | 59.30133 | 32801 ft | 523 kts | 131° |
| 2026-04-29 21:10 | 21.87093 | 59.36136 | 32795 ft | 523 kts | 131° |
| 2026-04-29 21:11 | 21.82426 | 59.42141 | 32790 ft | 522 kts | 131° |
| 2026-04-29 21:11 | 21.77764 | 59.48133 | 32786 ft | 522 kts | 131° |
| 2026-04-29 21:12 | 21.73101 | 59.54121 | 32790 ft | 522 kts | 131° |
| 2026-04-29 21:12 | 21.68437 | 59.60102 | 32787 ft | 522 kts | 131° |
| 2026-04-29 21:13 | 21.63777 | 59.66072 | 32782 ft | 521 kts | 131° |
| 2026-04-29 21:13 | 21.59112 | 59.72042 | 32785 ft | 521 kts | 131° |
| 2026-04-29 21:14 | 21.54445 | 59.78004 | 32787 ft | 521 kts | 131° |
| 2026-04-29 21:14 | 21.49770 | 59.83949 | 32791 ft | 521 kts | 131° |
| 2026-04-29 21:15 | 21.45118 | 59.89849 | 32786 ft | 521 kts | 131° |
| 2026-04-29 21:15 | 21.40444 | 59.95774 | 32787 ft | 520 kts | 131° |
| 2026-04-29 21:16 | 21.35769 | 60.01696 | 32790 ft | 520 kts | 131° |
| 2026-04-29 21:16 | 21.31089 | 60.07616 | 32790 ft | 520 kts | 131° |
| 2026-04-29 21:17 | 21.26413 | 60.13527 | 32794 ft | 520 kts | 131° |
| 2026-04-29 21:17 | 21.21735 | 60.19441 | 32791 ft | 520 kts | 131° |
| 2026-04-29 21:18 | 21.17058 | 60.25360 | 32795 ft | 520 kts | 131° |
| 2026-04-29 21:18 | 21.12382 | 60.31275 | 32796 ft | 520 kts | 131° |
| 2026-04-29 21:19 | 21.07706 | 60.37181 | 32795 ft | 520 kts | 131° |
| 2026-04-29 21:19 | 21.03027 | 60.43084 | 32799 ft | 520 kts | 131° |
| 2026-04-29 21:20 | 20.98344 | 60.48985 | 32799 ft | 520 kts | 131° |
| 2026-04-29 21:20 | 20.93660 | 60.54882 | 32798 ft | 520 kts | 131° |
| 2026-04-29 21:21 | 20.88970 | 60.60780 | 32800 ft | 520 kts | 131° |
| 2026-04-29 21:21 | 20.84282 | 60.66671 | 32800 ft | 520 kts | 131° |
| 2026-04-29 21:22 | 20.79592 | 60.72556 | 32798 ft | 520 kts | 131° |
| 2026-04-29 21:22 | 20.74904 | 60.78432 | 32804 ft | 520 kts | 131° |
| 2026-04-29 21:23 | 20.70208 | 60.84312 | 32803 ft | 520 kts | 131° |
| 2026-04-29 21:23 | 20.65513 | 60.90185 | 32802 ft | 520 kts | 131° |
| 2026-04-29 21:24 | 20.61037 | 60.96184 | 32807 ft | 521 kts | 125° |
| 2026-04-29 21:24 | 20.57050 | 61.02645 | 32801 ft | 521 kts | 123° |
| 2026-04-29 21:25 | 20.53167 | 61.09172 | 32802 ft | 521 kts | 123° |
| 2026-04-29 21:25 | 20.49288 | 61.15708 | 32800 ft | 521 kts | 123° |
| 2026-04-29 21:26 | 20.45395 | 61.22233 | 32801 ft | 521 kts | 123° |
| 2026-04-29 21:26 | 20.41494 | 61.28746 | 32801 ft | 521 kts | 123° |
| 2026-04-29 21:27 | 20.38248 | 61.34156 | 32801 ft | 521 kts | 123° |
| 2026-04-29 21:27 | 20.33680 | 61.41761 | 32806 ft | 521 kts | 123° |
| 2026-04-29 21:28 | 20.30431 | 61.47166 | 32804 ft | 521 kts | 123° |
| 2026-04-29 21:28 | 20.26523 | 61.53659 | 32808 ft | 521 kts | 123° |
| 2026-04-29 21:29 | 20.22607 | 61.60159 | 32801 ft | 521 kts | 123° |
| 2026-04-29 21:29 | 20.18692 | 61.66652 | 32803 ft | 521 kts | 123° |
| 2026-04-29 21:30 | 20.14775 | 61.73141 | 32805 ft | 521 kts | 123° |
| 2026-04-29 21:30 | 20.10851 | 61.79634 | 32806 ft | 521 kts | 123° |
| 2026-04-29 21:31 | 20.06924 | 61.86124 | 32803 ft | 522 kts | 123° |
| 2026-04-29 21:31 | 20.03023 | 61.92564 | 32805 ft | 521 kts | 123° |
| 2026-04-29 21:32 | 19.99066 | 61.99089 | 32807 ft | 521 kts | 123° |
| 2026-04-29 21:32 | 19.95163 | 62.05520 | 32805 ft | 521 kts | 123° |
| 2026-04-29 21:33 | 19.91234 | 62.11984 | 32804 ft | 520 kts | 123° |
| 2026-04-29 21:33 | 19.87305 | 62.18444 | 32803 ft | 521 kts | 123° |
| 2026-04-29 21:34 | 19.83374 | 62.24897 | 32806 ft | 521 kts | 123° |
| 2026-04-29 21:34 | 19.79436 | 62.31355 | 32809 ft | 521 kts | 123° |
| 2026-04-29 21:35 | 19.75498 | 62.37807 | 32806 ft | 520 kts | 123° |
| 2026-04-29 21:35 | 19.71562 | 62.44248 | 32806 ft | 520 kts | 123° |
| 2026-04-29 21:36 | 19.67618 | 62.50695 | 32806 ft | 520 kts | 123° |
| 2026-04-29 21:36 | 19.63677 | 62.57131 | 32811 ft | 520 kts | 123° |
| 2026-04-29 21:37 | 19.59733 | 62.63566 | 32810 ft | 520 kts | 123° |
| 2026-04-29 21:37 | 19.55791 | 62.69989 | 32807 ft | 520 kts | 123° |
| 2026-04-29 21:38 | 19.51843 | 62.76417 | 32810 ft | 520 kts | 123° |
| 2026-04-29 21:38 | 19.47917 | 62.82799 | 32815 ft | 520 kts | 123° |
| 2026-04-29 21:39 | 19.43969 | 62.89213 | 32816 ft | 520 kts | 123° |
| 2026-04-29 21:39 | 19.40015 | 62.95628 | 32817 ft | 520 kts | 123° |
| 2026-04-29 21:40 | 19.36057 | 63.02043 | 32815 ft | 520 kts | 123° |
| 2026-04-29 21:40 | 19.32101 | 63.08450 | 32816 ft | 520 kts | 123° |
| 2026-04-29 21:41 | 19.28141 | 63.14854 | 32818 ft | 520 kts | 123° |
| 2026-04-29 21:41 | 19.24179 | 63.21257 | 32818 ft | 520 kts | 123° |
| 2026-04-29 21:42 | 19.20239 | 63.27616 | 32817 ft | 520 kts | 123° |
| 2026-04-29 21:42 | 19.16269 | 63.34018 | 32819 ft | 520 kts | 123° |
| 2026-04-29 21:43 | 19.12300 | 63.40412 | 32816 ft | 520 kts | 123° |
| 2026-04-29 21:43 | 19.08331 | 63.46799 | 32819 ft | 520 kts | 123° |
| 2026-04-29 21:44 | 19.04358 | 63.53186 | 32819 ft | 520 kts | 123° |
| 2026-04-29 21:44 | 19.00385 | 63.59568 | 32819 ft | 520 kts | 123° |
| 2026-04-29 21:45 | 18.96406 | 63.65953 | 32817 ft | 520 kts | 123° |
| 2026-04-29 21:45 | 18.92427 | 63.72335 | 32820 ft | 520 kts | 123° |
| 2026-04-29 21:46 | 18.88444 | 63.78716 | 32821 ft | 520 kts | 123° |
| 2026-04-29 21:46 | 18.84461 | 63.85088 | 32824 ft | 520 kts | 123° |
| 2026-04-29 21:47 | 18.80500 | 63.91421 | 32823 ft | 520 kts | 123° |
| 2026-04-29 21:47 | 18.76512 | 63.97790 | 32818 ft | 520 kts | 122° |
| 2026-04-29 21:48 | 18.72525 | 64.04150 | 32825 ft | 520 kts | 123° |
| 2026-04-29 21:48 | 18.68532 | 64.10513 | 32823 ft | 520 kts | 123° |
| 2026-04-29 21:49 | 18.64537 | 64.16872 | 32826 ft | 520 kts | 123° |
| 2026-04-29 21:49 | 18.60542 | 64.23228 | 32825 ft | 520 kts | 123° |
| 2026-04-29 21:50 | 18.56547 | 64.29574 | 32823 ft | 519 kts | 123° |
| 2026-04-29 21:50 | 18.52551 | 64.35918 | 32827 ft | 519 kts | 123° |
| 2026-04-29 21:51 | 18.48553 | 64.42257 | 32823 ft | 519 kts | 122° |
| 2026-04-29 21:51 | 18.42554 | 64.51757 | 32822 ft | 519 kts | 123° |
| 2026-04-29 21:52 | 18.38556 | 64.58082 | 32825 ft | 519 kts | 123° |